Time;durP1;ratioP1;P1;durP2;ratioP2;P2;SDS_P1;SDS_P2;PMS_P1;PMS_P2;Temp;Humidity;BMP_temperature;BMP_pressure;BME280_temperature;BME280_humidity;BME280_pressure;Samples;Min_cycle;Max_cycle;Signal;HPM_P1;HPM_P2
2022/11/07 09:19:35;;;;;;;4.90;4.37;;;;;;;11.67;100.00;99768.94;6048218;23;20562;-81
2022/11/07 09:22:02;;;;;;;5.43;4.60;;;;;;;11.63;100.00;99743.59;6015397;23;20173;-84
2022/11/07 09:24:29;;;;;;;5.10;4.70;;;;;;;11.52;100.00;99746.22;6038553;23;20165;-85
2022/11/07 09:26:55;;;;;;;5.70;5.10;;;;;;;11.45;100.00;99781.97;6015168;23;20162;-85
2022/11/07 09:29:22;;;;;;;5.87;4.83;;;;;;;11.27;100.00;99765.03;6014329;23;20197;-84
2022/11/07 09:31:48;;;;;;;7.03;6.00;;;;;;;11.14;100.00;99767.84;6040312;23;20552;-84
2022/11/07 09:34:15;;;;;;;7.73;5.27;;;;;;;11.06;100.00;99768.91;6040205;23;20166;-85
2022/11/07 09:36:42;;;;;;;5.63;4.70;;;;;;;10.89;100.00;99767.81;6039669;23;20165;-86
2022/11/07 09:39:08;;;;;;;5.43;4.80;;;;;;;10.81;100.00;99776.97;6014860;23;20181;-85
2022/11/07 09:41:41;;;;;;;5.47;4.00;;;;;;;10.77;100.00;99758.84;6042913;23;20169;-84
2022/11/07 09:44:37;;;;;;;6.00;4.33;;;;;;;10.71;100.00;99747.16;6019563;23;20588;-85
2022/11/07 09:47:10;;;;;;;5.03;4.37;;;;;;;10.73;100.00;99754.97;6018866;23;20161;-84
2022/11/07 09:49:40;;;;;;;4.67;4.17;;;;;;;10.60;100.00;99742.47;6039286;23;20326;-85
2022/11/07 09:52:18;;;;;;;4.83;4.17;;;;;;;10.70;100.00;99744.66;6014980;23;20169;-85
2022/11/07 09:55:02;;;;;;;4.70;3.93;;;;;;;10.76;100.00;99741.97;6040018;23;20659;-85
2022/11/07 09:57:33;;;;;;;6.73;4.73;;;;;;;10.79;100.00;99743.38;6039894;23;20206;-85
2022/11/07 10:00:02;;;;;;;5.87;4.60;;;;;;;10.83;100.00;99745.38;6040002;23;20587;-86
2022/11/07 10:02:31;;;;;;;5.80;4.53;;;;;;;10.83;100.00;99747.25;6014962;23;20174;-85
2022/11/07 10:05:01;;;;;;;5.83;4.07;;;;;;;10.92;100.00;99743.25;6039547;23;20169;-86
2022/11/07 10:07:57;;;;;;;5.60;4.00;;;;;;;11.03;100.00;99753.28;6014797;23;20169;-86
2022/11/07 10:10:37;;;;;;;4.53;3.40;;;;;;;10.97;100.00;99744.25;6014629;23;20181;-85
2022/11/07 10:13:03;;;;;;;4.30;3.13;;;;;;;11.07;100.00;99740.25;6015052;23;20551;-85
2022/11/07 10:15:42;;;;;;;4.90;3.80;;;;;;;11.15;100.00;99748.03;6040000;23;20173;-84
2022/11/07 10:18:28;;;;;;;4.23;3.83;;;;;;;11.22;100.00;99738.06;6015328;23;20542;-85
2022/11/07 10:21:04;;;;;;;7.00;4.37;;;;;;;11.25;100.00;99729.56;6042060;23;20221;-85
2022/11/07 10:24:28;;;;;;;4.50;4.07;;;;;;;11.30;100.00;99724.34;6040098;23;20567;-85
2022/11/07 10:26:55;;;;;;;4.47;4.07;;;;;;;11.35;100.00;99721.81;6040523;23;20200;-86
2022/11/07 10:29:25;;;;;;;4.40;4.00;;;;;;;11.41;100.00;99729.00;6038383;23;20201;-85
2022/11/07 10:32:18;;;;;;;4.13;3.73;;;;;;;11.50;100.00;99730.34;6015420;23;20221;-85
2022/11/07 10:35:11;;;;;;;6.00;3.83;;;;;;;11.56;100.00;99726.78;6027309;23;20181;-86
2022/11/07 10:37:38;;;;;;;3.80;3.20;;;;;;;11.68;100.00;99724.16;6014561;23;20256;-85
2022/11/07 10:40:15;;;;;;;3.40;3.00;;;;;;;11.83;100.00;99719.25;6014899;23;20658;-86
2022/11/07 10:42:43;;;;;;;3.23;2.93;;;;;;;11.97;100.00;99715.34;6014573;23;20177;-86
2022/11/07 10:45:12;;;;;;;3.70;3.00;;;;;;;12.03;100.00;99713.63;6039660;23;20166;-87
2022/11/07 10:47:40;;;;;;;3.50;3.20;;;;;;;12.14;100.00;99723.59;6039647;23;20671;-85
2022/11/07 10:50:19;;;;;;;3.77;2.90;;;;;;;12.23;100.00;99712.31;6039639;23;20186;-85
2022/11/07 10:52:54;;;;;;;4.03;2.83;;;;;;;12.35;100.00;99710.50;6015078;23;20610;-85
2022/11/07 10:55:21;;;;;;;3.37;3.03;;;;;;;12.49;100.00;99719.16;6039716;23;20183;-85
2022/11/07 10:58:02;;;;;;;3.27;2.83;;;;;;;12.65;100.00;99713.13;6039626;23;20164;-85
2022/11/07 11:00:32;;;;;;;5.10;3.30;;;;;;;12.70;100.00;99709.75;6014717;23;20188;-84
2022/11/07 11:02:59;;;;;;;4.47;3.43;;;;;;;12.77;100.00;99708.59;6014586;23;20614;-85
2022/11/07 11:05:46;;;;;;;3.27;2.97;;;;;;;12.78;100.00;99694.09;6014995;23;20167;-86
2022/11/07 11:08:21;;;;;;;3.77;3.20;;;;;;;12.95;100.00;99699.59;6014896;23;20178;-86
2022/11/07 11:10:49;;;;;;;4.73;3.03;;;;;;;13.01;100.00;99693.31;6039978;23;20178;-87
2022/11/07 11:13:30;;;;;;;3.43;2.70;;;;;;;13.06;100.00;99690.75;6013944;23;20181;-86
2022/11/07 11:15:58;;;;;;;3.10;2.73;;;;;;;13.16;100.00;99685.59;6036701;23;20185;-87
2022/11/07 11:18:31;;;;;;;3.93;2.50;;;;;;;13.23;100.00;99674.72;5991225;23;20175;-86
2022/11/07 11:21:04;;;;;;;3.53;2.67;;;;;;;13.35;100.00;99682.75;6038086;23;20206;-87
2022/11/07 11:23:35;;;;;;;3.67;3.10;;;;;;;13.44;100.00;99675.97;5989416;23;20230;-86
2022/11/07 11:26:07;;;;;;;3.53;2.50;;;;;;;13.41;100.00;99682.66;6013086;23;20207;-85
2022/11/07 11:28:42;;;;;;;3.10;2.80;;;;;;;13.54;100.00;99678.88;6038026;23;20231;-86
2022/11/07 11:31:18;;;;;;;2.83;2.63;;;;;;;13.58;100.00;99680.84;5988935;23;20203;-85
2022/11/07 11:33:52;;;;;;;3.10;2.60;;;;;;;13.70;100.00;99680.84;6012545;23;20493;-85
2022/11/07 11:36:22;;;;;;;3.63;2.97;;;;;;;13.75;100.00;99670.16;6038045;23;20171;-87
2022/11/07 11:38:53;;;;;;;4.27;2.90;;;;;;;13.85;100.00;99670.38;5989769;23;20162;-87
2022/11/07 11:41:24;;;;;;;3.83;3.47;;;;;;;13.97;100.00;99668.44;5989280;23;20161;-87
2022/11/07 11:43:54;;;;;;;3.47;3.17;;;;;;;13.94;100.00;99666.25;6012370;23;20172;-87
2022/11/07 11:46:58;;;;;;;2.93;2.60;;;;;;;14.05;100.00;99675.31;6012295;23;20175;-86
2022/11/07 11:49:38;;;;;;;5.10;2.90;;;;;;;14.08;100.00;99664.06;6012175;23;20239;-86
2022/11/07 11:52:11;;;;;;;4.10;2.70;;;;;;;14.17;100.00;99670.72;6012340;23;20176;-86
2022/11/07 11:54:37;;;;;;;4.20;2.50;;;;;;;14.27;100.00;99662.81;6035780;23;20167;-87
2022/11/07 11:57:29;;;;;;;3.80;2.70;;;;;;;14.31;100.00;99660.44;6011837;23;20196;-86
2022/11/07 12:00:21;;;;;;;2.60;2.37;;;;;;;14.40;100.00;99651.75;6011703;23;20240;-86
2022/11/07 12:03:12;;;;;;;3.07;2.77;;;;;;;14.45;100.00;99651.84;6036971;23;20168;-87
2022/11/07 12:05:42;;;;;;;3.60;2.20;;;;;;;14.53;100.00;99653.28;5987157;23;20158;-92
2022/11/07 12:08:30;;;;;;;2.60;2.40;;;;;;;14.69;100.00;99654.38;6034916;23;20607;-86
2022/11/07 12:11:21;;;;;;;3.77;2.47;;;;;;;14.74;100.00;99643.66;5988014;23;20194;-85
2022/11/07 12:13:51;;;;;;;3.60;2.50;;;;;;;14.76;100.00;99645.03;6038163;23;20200;-87
2022/11/07 12:16:30;;;;;;;3.00;2.30;;;;;;;14.77;100.00;99643.97;6011662;23;20715;-85
2022/11/07 12:19:15;;;;;;;3.03;2.33;;;;;;;14.89;100.00;99647.41;5971135;23;1609400;-86
2022/11/07 12:21:50;;;;;;;2.43;2.23;;;;;;;14.97;100.00;99649.69;5991498;23;20174;-86
2022/11/07 12:24:34;;;;;;;2.33;2.13;;;;;;;15.12;100.00;99632.88;6015128;23;20169;-85
2022/11/07 12:27:03;;;;;;;5.10;2.27;;;;;;;15.20;100.00;99639.75;5991308;23;20154;-84
2022/11/07 12:29:53;;;;;;;3.20;2.90;;;;;;;15.31;100.00;99634.22;5990774;23;20623;-85
2022/11/07 12:32:52;;;;;;;2.83;2.57;;;;;;;15.40;100.00;99632.72;6039574;23;20174;-87
2022/11/07 12:35:40;;;;;;;2.63;2.00;;;;;;;15.54;100.00;99632.41;6022028;23;20174;-87
2022/11/07 12:38:32;;;;;;;2.30;2.10;;;;;;;15.48;100.00;99628.78;5991188;23;20170;-87
2022/11/07 12:41:22;;;;;;;2.70;2.20;;;;;;;15.55;100.00;99626.72;6039725;23;20155;-87
2022/11/07 12:44:13;;;;;;;2.30;2.10;;;;;;;15.56;100.00;99624.84;6039596;23;20374;-86
2022/11/07 12:46:53;;;;;;;1.70;1.60;;;;;;;15.58;100.00;99620.84;6014787;23;20165;-86
2022/11/07 12:49:38;;;;;;;4.40;2.40;;;;;;;15.61;100.00;99623.03;6014463;23;20183;-87
2022/11/07 12:52:29;;;;;;;3.10;2.23;;;;;;;15.62;100.00;99621.16;6014609;23;20236;-85
2022/11/07 12:54:59;;;;;;;3.83;2.20;;;;;;;15.46;100.00;99625.50;6014698;23;20162;-86
2022/11/07 12:57:30;;;;;;;4.27;3.87;;;;;;;15.57;100.00;99624.59;6037926;23;20166;-86
2022/11/07 13:00:03;;;;;;;2.30;1.70;;;;;;;15.64;100.00;99616.28;6014879;23;20557;-86
2022/11/07 13:02:36;;;;;;;2.10;1.70;;;;;;;15.63;100.00;99617.38;6039553;23;20178;-86
2022/11/07 13:05:24;;;;;;;2.07;1.70;;;;;;;15.60;100.00;99616.00;6039562;23;20186;-85
2022/11/07 13:07:58;;;;;;;2.00;1.73;;;;;;;15.70;100.00;99618.00;6014347;23;20170;-85
2022/11/07 13:10:39;;;;;;;1.97;1.60;;;;;;;15.70;100.00;99620.69;6014731;23;20185;-86
2022/11/07 13:13:14;;;;;;;2.70;1.90;;;;;;;15.68;100.00;99618.22;6014505;23;20528;-87
2022/11/07 13:15:41;;;;;;;2.70;1.57;;;;;;;15.67;100.00;99618.50;6014630;23;20182;-87
2022/11/07 13:18:28;;;;;;;2.67;1.80;;;;;;;15.69;100.00;99613.66;6039508;23;20173;-85
2022/11/07 13:21:03;;;;;;;2.60;1.33;;;;;;;15.76;100.00;99617.81;6010331;23;20273;-85
2022/11/07 13:23:31;;;;;;;1.30;1.20;;;;;;;15.73;100.00;99606.66;6011035;23;20159;-85
2022/11/07 13:26:06;;;;;;;1.63;1.40;;;;;;;15.71;100.00;99601.53;5962846;23;20178;-85
2022/11/07 13:28:57;;;;;;;2.30;1.40;;;;;;;15.72;100.00;99605.84;5990342;23;20182;-86
2022/11/07 13:31:44;;;;;;;1.50;1.40;;;;;;;15.67;100.00;99605.00;6010443;23;20637;-87
2022/11/07 13:34:17;;;;;;;2.27;1.80;;;;;;;15.65;100.00;99607.94;5986939;23;20155;-87
2022/11/07 13:36:45;;;;;;;3.47;1.70;;;;;;;15.69;100.00;99608.25;5962738;23;20182;-87
2022/11/07 13:39:12;;;;;;;2.80;1.63;;;;;;;15.68;100.00;99604.72;5962687;23;20183;-86
2022/11/07 13:41:39;;;;;;;2.53;1.37;;;;;;;15.70;100.00;99607.19;5985657;23;20170;-86
2022/11/07 13:44:15;;;;;;;2.53;1.50;;;;;;;15.62;100.00;99607.66;5962791;23;20173;-86
2022/11/07 13:46:55;;;;;;;1.70;1.40;;;;;;;15.55;100.00;99596.22;5985705;23;20643;-87
2022/11/07 13:49:26;;;;;;;1.70;1.50;;;;;;;15.55;100.00;99609.72;5962905;23;20246;-85
2022/11/07 13:51:53;;;;;;;1.70;1.50;;;;;;;15.49;100.00;99599.91;5985883;23;20175;-86
2022/11/07 13:54:53;;;;;;;2.63;1.90;;;;;;;15.59;100.00;99602.72;6010894;23;20173;-86
2022/11/07 13:57:36;;;;;;;43.70;24.87;;;;;;;15.49;100.00;99603.38;5985794;23;20249;-87
2022/11/07 14:00:09;;;;;;;3.50;3.13;;;;;;;15.50;100.00;99598.81;5963212;23;20206;-86
2022/11/07 14:02:59;;;;;;;3.00;2.30;;;;;;;15.46;100.00;99606.59;5986834;23;20215;-85
2022/11/07 14:05:33;;;;;;;4.67;4.27;;;;;;;15.36;100.00;99604.59;5962839;23;20629;-86
2022/11/07 14:08:06;;;;;;;2.40;2.20;;;;;;;15.36;100.00;99599.19;6010622;23;20159;-85
2022/11/07 14:10:33;;;;;;;1.60;1.50;;;;;;;15.36;100.00;99599.19;5985878;23;20179;-86
2022/11/07 14:13:06;;;;;;;3.93;1.90;;;;;;;15.22;100.00;99600.63;5985715;23;20182;-85
2022/11/07 14:15:34;;;;;;;3.40;2.10;;;;;;;15.15;100.00;99602.72;6010339;23;20162;-85
2022/11/07 14:18:02;;;;;;;4.53;3.13;;;;;;;15.14;100.00;99605.66;5961902;23;20183;-87
2022/11/07 14:20:29;;;;;;;4.67;3.77;;;;;;;15.13;100.00;99609.41;5979564;23;20310;-85
2022/11/07 14:22:59;;;;;;;3.23;2.27;;;;;;;15.02;100.00;99610.38;6010371;23;20186;-85
2022/11/07 14:25:27;;;;;;;2.63;1.67;;;;;;;14.93;100.00;99616.16;5962641;23;20566;-86
2022/11/07 14:27:55;;;;;;;3.47;1.90;;;;;;;14.86;100.00;99615.53;5985561;23;20178;-85
2022/11/07 14:30:23;;;;;;;1.97;1.47;;;;;;;14.78;100.00;99618.66;6010337;23;20186;-85
2022/11/07 14:32:55;;;;;;;4.80;3.83;;;;;;;14.73;100.00;99623.16;5962485;23;20173;-85
2022/11/07 14:35:32;;;;;;;9.63;7.90;;;;;;;14.66;100.00;99617.09;6010513;23;20185;-86
2022/11/07 14:38:08;;;;;;;9.67;8.67;;;;;;;14.56;100.00;99617.75;5962715;23;20185;-90
2022/11/07 14:40:35;;;;;;;6.43;5.30;;;;;;;14.49;100.00;99612.53;5985865;23;20182;-86
2022/11/07 14:43:02;;;;;;;4.23;3.83;;;;;;;14.40;100.00;99615.88;6010114;23;20167;-85
2022/11/07 14:45:29;;;;;;;2.33;2.10;;;;;;;14.28;100.00;99604.31;5939295;23;20181;-85
2022/11/07 14:48:17;;;;;;;3.10;2.50;;;;;;;14.16;100.00;99609.78;6010460;23;20588;-88
2022/11/07 14:50:46;;;;;;;2.83;2.60;;;;;;;14.02;100.00;99606.59;5986610;23;20273;-86
2022/11/07 14:53:25;;;;;;;3.17;2.70;;;;;;;13.93;100.00;99618.81;5986293;23;20274;-85
2022/11/07 14:55:53;;;;;;;4.80;3.40;;;;;;;13.79;100.00;99609.41;5985907;23;20166;-87
2022/11/07 14:58:22;;;;;;;7.77;4.40;;;;;;;13.71;100.00;99620.56;5986010;23;20170;-85
2022/11/07 15:00:51;;;;;;;5.53;4.40;;;;;;;13.58;100.00;99618.13;5962457;23;20183;-85
2022/11/07 15:03:21;;;;;;;6.77;4.70;;;;;;;13.43;100.00;99618.66;5985969;23;20165;-85
2022/11/07 15:05:48;;;;;;;4.27;3.87;;;;;;;13.32;100.00;99615.97;5986229;23;20269;-85
2022/11/07 15:08:35;;;;;;;4.00;3.33;;;;;;;13.17;100.00;99617.28;5985963;23;20163;-86
2022/11/07 15:11:22;;;;;;;4.60;3.17;;;;;;;13.02;100.00;99625.00;5985497;23;20183;-85
2022/11/07 15:13:49;;;;;;;4.73;3.87;;;;;;;12.82;100.00;99619.19;5961867;23;20194;-85
2022/11/07 15:16:21;;;;;;;7.83;4.00;;;;;;;12.69;100.00;99620.22;6008732;23;20166;-86
2022/11/07 15:18:55;;;;;;;4.57;2.60;;;;;;;12.54;100.00;99624.41;6011953;23;20672;-86
2022/11/07 15:21:34;;;;;;;5.13;2.80;;;;;;;12.39;100.00;99621.34;5990171;23;20192;-86
2022/11/07 15:24:34;;;;;;;4.10;2.97;;;;;;;12.26;100.00;99622.41;6037978;23;20192;-85
2022/11/07 15:27:05;;;;;;;4.43;4.03;;;;;;;12.11;100.00;99619.31;6012959;23;20175;-86
2022/11/07 15:29:34;;;;;;;5.20;4.67;;;;;;;12.03;100.00;99628.53;5990305;23;20176;-86
2022/11/07 15:32:10;;;;;;;5.43;4.50;;;;;;;11.88;100.00;99623.56;6038842;23;20276;-87
2022/11/07 15:34:36;;;;;;;16.83;15.23;;;;;;;11.80;100.00;99621.19;6013773;23;20240;-86
2022/11/07 15:37:24;;;;;;;13.70;12.30;;;;;;;11.68;100.00;99625.66;6038596;23;20188;-87
2022/11/07 15:39:51;;;;;;;31.27;25.07;;;;;;;11.49;100.00;99622.19;6014264;23;20172;-86
2022/11/07 15:42:18;;;;;;;8.57;6.40;;;;;;;11.42;100.00;99620.66;6013636;23;20522;-87
2022/11/07 15:44:45;;;;;;;7.60;5.77;;;;;;;11.33;100.00;99616.63;6014918;23;20176;-85
2022/11/07 15:47:17;;;;;;;9.50;7.23;;;;;;;11.23;100.00;99624.38;5992521;23;20175;-86
2022/11/07 15:49:44;;;;;;;11.27;8.03;;;;;;;11.04;100.00;99623.56;6015967;23;20661;-86
2022/11/07 15:52:10;;;;;;;19.43;13.70;;;;;;;10.97;100.00;99620.09;6040712;23;20619;-86
2022/11/07 15:54:37;;;;;;;12.00;8.97;;;;;;;10.83;100.00;99618.59;6015982;23;20675;-86
2022/11/07 15:57:05;;;;;;;11.17;7.33;;;;;;;10.71;100.00;99618.53;5992528;23;20200;-86
2022/11/07 15:59:34;;;;;;;6.27;5.63;;;;;;;10.58;100.00;99621.34;5992256;23;20190;-87
2022/11/07 16:02:02;;;;;;;10.30;7.23;;;;;;;10.46;100.00;99636.47;6040669;23;20262;-87
2022/11/07 16:04:29;;;;;;;5.30;4.10;;;;;;;10.36;100.00;99636.94;6015593;23;20181;-88
2022/11/07 16:06:55;;;;;;;7.93;4.30;;;;;;;10.30;100.00;99631.66;6040655;23;20168;-84
2022/11/07 16:09:22;;;;;;;5.67;4.30;;;;;;;10.20;100.00;99634.81;6040492;23;20162;-84
2022/11/07 16:11:49;;;;;;;9.20;4.77;;;;;;;10.03;100.00;99631.00;6038577;23;20280;-85
2022/11/07 16:14:18;;;;;;;9.67;5.23;;;;;;;9.92;100.00;99629.00;6015214;23;20200;-87
2022/11/07 16:17:04;;;;;;;5.87;4.80;;;;;;;9.82;100.00;99634.81;6040664;23;20161;-85
2022/11/07 16:19:31;;;;;;;8.10;5.57;;;;;;;9.66;100.00;99629.94;6011077;23;20232;-85
2022/11/07 16:21:57;;;;;;;8.93;5.67;;;;;;;9.55;100.00;99641.34;6012679;23;20167;-86
2022/11/07 16:24:24;;;;;;;8.23;4.70;;;;;;;9.45;100.00;99631.09;6010882;23;20513;-85
2022/11/07 16:26:51;;;;;;;6.63;3.87;;;;;;;9.30;100.00;99630.53;5987603;23;20174;-85
2022/11/07 16:29:17;;;;;;;5.93;4.30;;;;;;;9.18;100.00;99629.53;6036647;23;20604;-85
2022/11/07 16:31:44;;;;;;;6.13;4.00;;;;;;;9.14;100.00;99631.00;6012685;23;20192;-85
2022/11/07 16:34:11;;;;;;;7.47;4.60;;;;;;;9.00;100.00;99640.09;6013121;23;20222;-85
2022/11/07 16:36:38;;;;;;;9.17;5.00;;;;;;;8.93;100.00;99633.91;5989857;23;20185;-84
2022/11/07 16:39:10;;;;;;;10.30;4.17;;;;;;;8.92;100.00;99634.94;6017964;23;20166;-85
2022/11/07 16:41:38;;;;;;;6.53;4.30;;;;;;;8.74;100.00;99636.41;6023710;23;20234;-83
2022/11/07 16:44:05;;;;;;;12.87;6.30;;;;;;;8.59;100.00;99638.47;6024929;23;20182;-83
2022/11/07 16:46:35;;;;;;;14.63;5.33;;;;;;;8.62;100.00;99645.28;6048612;23;20176;-82
2022/11/07 16:49:12;;;;;;;10.93;5.47;;;;;;;8.49;100.00;99648.75;6026706;23;20158;-83
2022/11/07 16:51:42;;;;;;;7.83;4.13;;;;;;;8.42;100.00;99645.25;6028413;23;20182;-83
2022/11/07 16:54:10;;;;;;;13.53;5.10;;;;;;;8.36;100.00;99646.91;6029518;23;20161;-82
2022/11/07 16:56:38;;;;;;;10.90;3.93;;;;;;;8.34;100.00;99648.97;6028147;23;20683;-82
2022/11/07 16:59:06;;;;;;;8.23;3.70;;;;;;;8.28;100.00;99652.41;6030209;23;20170;-82
2022/11/07 17:01:34;;;;;;;8.73;3.53;;;;;;;8.17;100.00;99652.19;6031103;23;20170;-83
2022/11/07 17:04:02;;;;;;;11.87;4.10;;;;;;;8.11;100.00;99659.19;6032446;23;20170;-83
2022/11/07 17:06:33;;;;;;;9.07;3.90;;;;;;;8.03;100.00;99655.84;6030976;23;20177;-83
2022/11/07 17:09:04;;;;;;;10.33;3.67;;;;;;;7.92;100.00;99655.44;6030473;23;20166;-82
2022/11/07 17:11:38;;;;;;;11.40;3.80;;;;;;;7.92;100.00;99655.44;6051920;23;20193;-83
2022/11/07 17:14:05;;;;;;;8.97;3.30;;;;;;;7.87;100.00;99665.91;6027459;23;20186;-82
2022/11/07 17:16:35;;;;;;;13.07;3.87;;;;;;;7.90;100.00;99654.00;6027324;23;20167;-82
2022/11/07 17:19:04;;;;;;;11.87;3.93;;;;;;;7.73;100.00;99642.88;6034115;23;20223;-82
2022/11/07 17:21:35;;;;;;;9.97;3.70;;;;;;;7.74;100.00;99649.88;6034488;23;20162;-82
2022/11/07 17:24:03;;;;;;;11.07;4.40;;;;;;;7.64;100.00;99649.41;6009206;23;20256;-82
2022/11/07 17:26:33;;;;;;;8.80;4.20;;;;;;;7.54;100.00;99648.97;5984811;23;20291;-82
2022/11/07 17:29:01;;;;;;;10.50;4.57;;;;;;;7.52;100.00;99648.31;6054065;23;20154;-83
2022/11/07 17:31:29;;;;;;;8.20;3.77;;;;;;;7.45;100.00;99642.16;6029528;23;20190;-83
2022/11/07 17:33:56;;;;;;;8.43;3.50;;;;;;;7.42;100.00;99654.03;6029298;23;20663;-82
2022/11/07 17:36:29;;;;;;;7.37;3.40;;;;;;;7.41;100.00;99651.59;6010653;23;20184;-83
2022/11/07 17:39:09;;;;;;;6.97;3.30;;;;;;;7.32;100.00;99648.25;6059854;23;20161;-82
2022/11/07 17:41:40;;;;;;;5.33;3.23;;;;;;;7.29;100.00;99647.81;6059898;23;20157;-83
2022/11/07 17:44:10;;;;;;;4.67;2.87;;;;;;;7.27;100.00;99656.03;6034452;23;20181;-82
2022/11/07 17:46:46;;;;;;;6.17;3.63;;;;;;;7.26;100.00;99646.38;6009815;23;20174;-82
2022/11/07 17:49:16;;;;;;;3.10;2.80;;;;;;;7.21;100.00;99650.66;6031596;23;20623;-82
2022/11/07 17:51:43;;;;;;;7.37;4.47;;;;;;;7.18;100.00;99645.72;6030358;23;20185;-83
2022/11/07 17:54:14;;;;;;;9.33;6.73;;;;;;;7.14;100.00;99652.47;6006006;23;20206;-82
2022/11/07 17:56:42;;;;;;;6.07;4.80;;;;;;;7.09;100.00;99656.53;6029994;23;20184;-86
2022/11/07 17:59:14;;;;;;;8.90;6.90;;;;;;;7.09;100.00;99650.41;6055709;23;20248;-82
2022/11/07 18:01:41;;;;;;;6.47;5.70;;;;;;;6.99;100.00;99656.09;6007959;23;20253;-82
2022/11/07 18:04:12;;;;;;;8.87;5.47;;;;;;;6.96;100.00;99652.97;6008365;23;20169;-82
2022/11/07 18:06:41;;;;;;;5.60;4.90;;;;;;;6.90;100.00;99656.44;6030820;23;20170;-83
2022/11/07 18:09:12;;;;;;;6.17;5.30;;;;;;;6.83;100.00;99656.38;6027857;23;20169;-81
2022/11/07 18:11:39;;;;;;;8.30;5.47;;;;;;;6.82;100.00;99644.06;6048764;23;20169;-82
2022/11/07 18:14:06;;;;;;;5.93;5.27;;;;;;;6.77;100.00;99651.81;6024131;23;20193;-81
2022/11/07 18:16:36;;;;;;;7.53;6.40;;;;;;;6.73;100.00;99647.06;6049333;23;20248;-81
2022/11/07 18:19:03;;;;;;;6.77;6.07;;;;;;;6.70;100.00;99642.97;6049275;23;20552;-81
2022/11/07 18:21:30;;;;;;;6.87;5.13;;;;;;;6.67;100.00;99651.38;6048884;23;20177;-82
2022/11/07 18:23:57;;;;;;;6.90;5.13;;;;;;;6.62;100.00;99648.47;6048578;23;20176;-83
2022/11/07 18:26:29;;;;;;;7.83;5.10;;;;;;;6.57;100.00;99634.91;6047263;23;20166;-82
2022/11/07 18:29:04;;;;;;;6.17;5.47;;;;;;;6.53;100.00;99623.00;6021915;23;20176;-81
2022/11/07 18:31:32;;;;;;;6.10;5.50;;;;;;;6.51;100.00;99633.00;6046307;23;20231;-82
2022/11/07 18:34:00;;;;;;;10.13;5.67;;;;;;;6.46;100.00;99638.06;6047026;23;20164;-82
2022/11/07 18:36:29;;;;;;;13.50;5.97;;;;;;;6.46;100.00;99636.25;6048805;23;20164;-82
2022/11/07 18:39:22;;;;;;;13.57;9.07;;;;;;;6.52;100.00;99638.16;6050257;23;20190;-82
2022/11/07 18:41:51;;;;;;;6.13;5.20;;;;;;;6.43;100.00;99647.28;6044745;23;20170;-81
2022/11/07 18:44:18;;;;;;;6.57;5.60;;;;;;;6.48;100.00;99647.53;6023609;23;20166;-82
2022/11/07 18:46:45;;;;;;;7.13;5.60;;;;;;;6.41;100.00;99643.97;6022667;23;20173;-81
2022/11/07 18:49:13;;;;;;;6.13;4.83;;;;;;;6.36;100.00;99648.22;6022305;23;20243;-81
2022/11/07 18:51:42;;;;;;;5.70;4.93;;;;;;;6.27;100.00;99652.03;6045216;23;20253;-81
2022/11/07 18:54:11;;;;;;;4.83;4.33;;;;;;;6.23;100.00;99648.94;6047114;23;20166;-81
2022/11/07 18:56:39;;;;;;;7.00;5.57;;;;;;;6.29;100.00;99636.72;6047511;23;20256;-81
2022/11/07 18:59:05;;;;;;;19.17;16.70;;;;;;;6.32;100.00;99653.13;6021543;23;20177;-81
2022/11/07 19:01:32;;;;;;;12.20;10.63;;;;;;;6.27;100.00;99644.06;6021293;23;20192;-82
2022/11/07 19:04:02;;;;;;;12.30;10.47;;;;;;;6.19;100.00;99640.53;6046958;23;20181;-81
2022/11/07 19:06:29;;;;;;;14.33;12.13;;;;;;;6.20;100.00;99647.47;6047005;23;20260;-82
2022/11/07 19:08:56;;;;;;;14.27;11.03;;;;;;;6.14;100.00;99645.59;6021509;23;20248;-81
2022/11/07 19:11:28;;;;;;;9.40;8.13;;;;;;;6.12;100.00;99654.75;6045548;23;20584;-81
2022/11/07 19:14:03;;;;;;;12.80;11.00;;;;;;;6.05;100.00;99651.22;6045864;23;20249;-81
2022/11/07 19:16:30;;;;;;;32.07;18.67;;;;;;;6.03;100.00;99659.38;6021452;23;20173;-81
2022/11/07 19:18:58;;;;;;;35.97;22.50;;;;;;;5.94;100.00;99660.53;6021039;23;20415;-81
2022/11/07 19:21:25;;;;;;;24.47;16.60;;;;;;;5.92;100.00;99653.75;6046144;23;20160;-81
2022/11/07 19:23:51;;;;;;;21.07;15.80;;;;;;;5.97;100.00;99662.00;6045636;23;20256;-81
2022/11/07 19:26:18;;;;;;;16.00;13.13;;;;;;;5.87;100.00;99654.31;6045037;23;20162;-81
2022/11/07 19:28:45;;;;;;;14.03;9.90;;;;;;;5.93;100.00;99653.56;6044391;23;20158;-81
2022/11/07 19:31:12;;;;;;;9.63;7.33;;;;;;;5.91;100.00;99660.09;6044478;23;20162;-81
2022/11/07 19:33:40;;;;;;;10.07;7.37;;;;;;;5.92;100.00;99656.41;6043789;23;20646;-81
2022/11/07 19:36:11;;;;;;;8.23;7.20;;;;;;;5.86;100.00;99655.31;6044939;23;20224;-81
2022/11/07 19:38:38;;;;;;;9.40;7.90;;;;;;;5.90;100.00;99659.25;6021219;23;20159;-82
2022/11/07 19:41:06;;;;;;;11.50;8.00;;;;;;;5.87;100.00;99659.66;6046850;23;20170;-82
2022/11/07 19:43:33;;;;;;;10.60;7.90;;;;;;;5.88;100.00;99663.94;6045155;23;20706;-81
2022/11/07 19:46:13;;;;;;;8.40;7.50;;;;;;;5.87;100.00;99659.66;6043938;23;20161;-82
2022/11/07 19:48:42;;;;;;;9.77;7.37;;;;;;;5.93;100.00;99666.84;6018965;23;20214;-81
2022/11/07 19:51:14;;;;;;;9.80;8.17;;;;;;;5.90;100.00;99669.91;6044547;23;20161;-81
2022/11/07 19:53:51;;;;;;;7.77;6.97;;;;;;;5.89;100.00;99672.72;6042426;23;20188;-80
2022/11/07 19:56:17;;;;;;;14.43;12.90;;;;;;;5.89;100.00;99672.72;6040233;23;20210;-81
2022/11/07 19:58:44;;;;;;;12.17;10.13;;;;;;;5.82;100.00;99675.31;6018522;23;20166;-81
2022/11/07 20:01:17;;;;;;;9.50;8.07;;;;;;;5.80;100.00;99663.19;6042825;23;20162;-81
2022/11/07 20:03:45;;;;;;;8.67;7.43;;;;;;;5.78;100.00;99666.84;6043688;23;20583;-81
2022/11/07 20:06:14;;;;;;;6.63;5.87;;;;;;;5.80;100.00;99672.00;6045208;23;20166;-81
2022/11/07 20:08:42;;;;;;;6.60;6.00;;;;;;;5.74;100.00;99667.41;6019479;23;20172;-81
2022/11/07 20:11:11;;;;;;;7.20;6.23;;;;;;;5.73;100.00;99674.59;6044712;23;20663;-82
2022/11/07 20:13:38;;;;;;;8.90;6.13;;;;;;;5.69;100.00;99672.50;6019255;23;20170;-82
2022/11/07 20:16:07;;;;;;;8.60;6.93;;;;;;;5.70;100.00;99671.47;6044925;23;20168;-81
2022/11/07 20:18:35;;;;;;;8.03;6.80;;;;;;;5.64;100.00;99678.38;6045786;23;20170;-81
2022/11/07 20:21:06;;;;;;;10.77;9.27;;;;;;;5.67;100.00;99679.81;5996872;23;20698;-81
2022/11/07 20:23:33;;;;;;;12.03;10.40;;;;;;;5.64;100.00;99680.22;6042948;23;20154;-81
2022/11/07 20:25:59;;;;;;;10.60;9.50;;;;;;;5.68;100.00;99684.97;6044232;23;20539;-81
2022/11/07 20:28:26;;;;;;;10.47;8.97;;;;;;;5.64;100.00;99688.19;6019467;23;20166;-81
2022/11/07 20:30:54;;;;;;;13.47;10.50;;;;;;;5.68;100.00;99692.13;6046019;23;20170;-81
2022/11/07 20:33:23;;;;;;;12.50;10.57;;;;;;;5.62;100.00;99696.34;5996719;23;20209;-81
2022/11/07 20:36:01;;;;;;;12.63;9.33;;;;;;;5.58;100.00;99694.25;6046449;23;20172;-81
2022/11/07 20:38:28;;;;;;;12.13;10.57;;;;;;;5.57;100.00;99687.25;6022133;23;20533;-81
2022/11/07 20:40:55;;;;;;;12.23;10.73;;;;;;;5.53;100.00;99692.13;6046224;23;20177;-81
2022/11/07 20:43:22;;;;;;;19.77;16.33;;;;;;;5.50;100.00;99689.03;6022589;23;20178;-82
2022/11/07 20:45:48;;;;;;;18.93;15.93;;;;;;;5.47;100.00;99681.41;6046932;23;20170;-82
2022/11/07 20:48:16;;;;;;;20.10;16.97;;;;;;;5.46;100.00;99690.41;6045789;23;20163;-81
2022/11/07 20:50:43;;;;;;;19.60;17.37;;;;;;;5.42;100.00;99689.13;6020475;23;20232;-81
2022/11/07 20:53:09;;;;;;;22.43;17.80;;;;;;;5.42;100.00;99705.06;6045872;23;20182;-81
2022/11/07 20:55:38;;;;;;;18.87;16.03;;;;;;;5.35;100.00;99693.53;6045862;23;20221;-80
2022/11/07 20:58:04;;;;;;;19.50;15.30;;;;;;;5.32;100.00;99692.88;6045456;23;20166;-81
2022/11/07 21:00:31;;;;;;;18.63;15.47;;;;;;;5.38;100.00;99701.94;6055679;23;20181;-82
2022/11/07 21:03:02;;;;;;;17.13;14.40;;;;;;;5.29;100.00;99685.28;6058003;23;20166;-82
2022/11/07 21:05:29;;;;;;;18.00;14.97;;;;;;;5.29;100.00;99695.91;6031049;23;20166;-82
2022/11/07 21:07:56;;;;;;;23.53;17.27;;;;;;;5.21;100.00;99693.34;6024591;23;20217;-82
2022/11/07 21:10:22;;;;;;;31.90;22.23;;;;;;;5.17;100.00;99697.41;6047227;23;20198;-81